sensor_id;sensor_type;location;lat;lon;timestamp;temperature;humidity
4356;DHT22;64374;51.482;7.408;2024-01-15T00:00:17;2.70;99.90
4356;DHT22;64374;51.482;7.408;2024-01-15T00:02:48;2.70;99.90
4356;DHT22;64374;51.482;7.408;2024-01-15T00:05:16;2.70;99.90
4356;DHT22;64374;51.482;7.408;2024-01-15T00:07:44;2.60;99.90
4356;DHT22;64374;51.482;7.408;2024-01-15T00:10:12;2.60;99.90
4356;DHT22;64374;51.482;7.408;2024-01-15T00:12:40;2.40;99.90
4356;DHT22;64374;51.482;7.408;2024-01-15T00:15:09;2.30;99.90
4356;DHT22;64374;51.482;7.408;2024-01-15T00:17:38;2.70;99.90
4356;DHT22;64374;51.482;7.408;2024-01-15T00:20:07;2.90;99.90
4356;DHT22;64374;51.482;7.408;2024-01-15T00:22:43;3.00;99.90
4356;DHT22;64374;51.482;7.408;2024-01-15T00:25:12;3.10;99.90
4356;DHT22;64374;51.482;7.408;2024-01-15T00:27:40;3.30;99.90
4356;DHT22;64374;51.482;7.408;2024-01-15T00:30:09;3.00;99.90
4356;DHT22;64374;51.482;7.408;2024-01-15T00:32:44;3.00;99.90
4356;DHT22;64374;51.482;7.408;2024-01-15T00:35:15;2.70;99.90
4356;DHT22;64374;51.482;7.408;2024-01-15T00:37:43;2.50;99.90
4356;DHT22;64374;51.482;7.408;2024-01-15T00:40:12;2.60;99.90
4356;DHT22;64374;51.482;7.408;2024-01-15T00:42:42;2.80;99.90
4356;DHT22;64374;51.482;7.408;2024-01-15T00:45:11;2.80;99.90
4356;DHT22;64374;51.482;7.408;2024-01-15T00:47:48;2.80;99.90
4356;DHT22;64374;51.482;7.408;2024-01-15T00:50:16;2.70;99.90
4356;DHT22;64374;51.482;7.408;2024-01-15T00:52:47;2.60;99.90
4356;DHT22;64374;51.482;7.408;2024-01-15T00:55:18;2.80;99.90
4356;DHT22;64374;51.482;7.408;2024-01-15T00:57:48;2.70;99.90
4356;DHT22;64374;51.482;7.408;2024-01-15T01:00:17;2.50;99.90
4356;DHT22;64374;51.482;7.408;2024-01-15T01:02:46;2.80;99.90
4356;DHT22;64374;51.482;7.408;2024-01-15T01:05:15;2.90;99.90
4356;DHT22;64374;51.482;7.408;2024-01-15T01:07:43;2.90;99.90
4356;DHT22;64374;51.482;7.408;2024-01-15T01:10:11;2.90;99.90
4356;DHT22;64374;51.482;7.408;2024-01-15T01:12:39;2.90;99.90
4356;DHT22;64374;51.482;7.408;2024-01-15T01:15:08;3.30;99.90
4356;DHT22;64374;51.482;7.408;2024-01-15T01:17:38;3.30;99.90
4356;DHT22;64374;51.482;7.408;2024-01-15T01:20:13;3.20;99.90
4356;DHT22;64374;51.482;7.408;2024-01-15T01:22:45;3.10;99.90
4356;DHT22;64374;51.482;7.408;2024-01-15T01:25:13;3.10;99.90
4356;DHT22;64374;51.482;7.408;2024-01-15T01:27:44;3.00;99.90
4356;DHT22;64374;51.482;7.408;2024-01-15T01:30:19;2.90;99.90
4356;DHT22;64374;51.482;7.408;2024-01-15T01:32:50;2.90;99.90
4356;DHT22;64374;51.482;7.408;2024-01-15T01:35:19;2.70;99.90
4356;DHT22;64374;51.482;7.408;2024-01-15T01:37:47;2.70;99.90
4356;DHT22;64374;51.482;7.408;2024-01-15T01:40:15;2.60;99.90
4356;DHT22;64374;51.482;7.408;2024-01-15T01:42:44;2.80;99.90
4356;DHT22;64374;51.482;7.408;2024-01-15T01:45:13;3.10;99.90
4356;DHT22;64374;51.482;7.408;2024-01-15T01:47:41;3.20;99.90
4356;DHT22;64374;51.482;7.408;2024-01-15T01:50:10;3.20;99.90
4356;DHT22;64374;51.482;7.408;2024-01-15T01:52:40;3.10;99.90
4356;DHT22;64374;51.482;7.408;2024-01-15T01:55:09;3.10;99.90
4356;DHT22;64374;51.482;7.408;2024-01-15T01:57:38;3.10;99.90
4356;DHT22;64374;51.482;7.408;2024-01-15T02:00:08;2.90;99.90
4356;DHT22;64374;51.482;7.408;2024-01-15T02:02:39;3.10;99.90
4356;DHT22;64374;51.482;7.408;2024-01-15T02:05:08;3.20;99.90
4356;DHT22;64374;51.482;7.408;2024-01-15T02:07:37;3.00;99.90
4356;DHT22;64374;51.482;7.408;2024-01-15T02:10:09;3.00;99.90
4356;DHT22;64374;51.482;7.408;2024-01-15T02:12:38;3.30;99.90
4356;DHT22;64374;51.482;7.408;2024-01-15T02:15:07;2.80;99.90
4356;DHT22;64374;51.482;7.408;2024-01-15T02:17:35;2.80;99.90
4356;DHT22;64374;51.482;7.408;2024-01-15T02:20:04;2.90;99.90
4356;DHT22;64374;51.482;7.408;2024-01-15T02:22:35;2.80;99.90
4356;DHT22;64374;51.482;7.408;2024-01-15T02:25:16;2.90;99.90
4356;DHT22;64374;51.482;7.408;2024-01-15T02:27:45;2.80;99.90
4356;DHT22;64374;51.482;7.408;2024-01-15T02:30:14;2.80;99.90
4356;DHT22;64374;51.482;7.408;2024-01-15T02:32:43;2.90;99.90
4356;DHT22;64374;51.482;7.408;2024-01-15T02:35:12;3.00;99.90
4356;DHT22;64374;51.482;7.408;2024-01-15T02:37:40;3.10;99.90
4356;DHT22;64374;51.482;7.408;2024-01-15T02:40:11;3.00;99.90
4356;DHT22;64374;51.482;7.408;2024-01-15T02:42:39;2.90;99.90
4356;DHT22;64374;51.482;7.408;2024-01-15T02:45:08;2.60;99.90
4356;DHT22;64374;51.482;7.408;2024-01-15T02:47:44;2.50;99.90
4356;DHT22;64374;51.482;7.408;2024-01-15T02:50:12;2.60;99.90
4356;DHT22;64374;51.482;7.408;2024-01-15T02:52:43;3.00;99.90
4356;DHT22;64374;51.482;7.408;2024-01-15T02:55:13;3.00;99.90
4356;DHT22;64374;51.482;7.408;2024-01-15T02:57:41;3.00;99.90
4356;DHT22;64374;51.482;7.408;2024-01-15T03:00:10;2.80;99.90
4356;DHT22;64374;51.482;7.408;2024-01-15T03:02:39;2.80;99.90
4356;DHT22;64374;51.482;7.408;2024-01-15T03:05:14;2.80;99.90
4356;DHT22;64374;51.482;7.408;2024-01-15T03:07:45;2.50;99.90
4356;DHT22;64374;51.482;7.408;2024-01-15T03:10:16;2.80;99.90
4356;DHT22;64374;51.482;7.408;2024-01-15T03:12:44;2.90;99.90
4356;DHT22;64374;51.482;7.408;2024-01-15T03:15:12;3.20;99.90
4356;DHT22;64374;51.482;7.408;2024-01-15T03:17:41;3.30;99.90
4356;DHT22;64374;51.482;7.408;2024-01-15T03:20:11;3.20;99.90
4356;DHT22;64374;51.482;7.408;2024-01-15T03:22:39;2.90;99.90
4356;DHT22;64374;51.482;7.408;2024-01-15T03:25:07;2.90;99.90
4356;DHT22;64374;51.482;7.408;2024-01-15T03:27:37;2.90;99.90
4356;DHT22;64374;51.482;7.408;2024-01-15T03:30:06;3.10;99.90
4356;DHT22;64374;51.482;7.408;2024-01-15T03:32:35;2.90;99.90
4356;DHT22;64374;51.482;7.408;2024-01-15T03:35:04;2.80;99.90
4356;DHT22;64374;51.482;7.408;2024-01-15T03:37:32;2.40;99.90
4356;DHT22;64374;51.482;7.408;2024-01-15T03:40:03;2.50;99.90
4356;DHT22;64374;51.482;7.408;2024-01-15T03:42:34;2.70;99.90
4356;DHT22;64374;51.482;7.408;2024-01-15T03:45:05;2.70;99.90
4356;DHT22;64374;51.482;7.408;2024-01-15T03:47:33;3.30;99.90
4356;DHT22;64374;51.482;7.408;2024-01-15T03:50:01;3.30;99.90
4356;DHT22;64374;51.482;7.408;2024-01-15T03:52:30;3.20;99.90
4356;DHT22;64374;51.482;7.408;2024-01-15T03:54:58;3.20;99.90
4356;DHT22;64374;51.482;7.408;2024-01-15T03:57:26;3.40;99.90
4356;DHT22;64374;51.482;7.408;2024-01-15T03:59:57;3.10;99.90
4356;DHT22;64374;51.482;7.408;2024-01-15T04:02:31;3.20;99.90
4356;DHT22;64374;51.482;7.408;2024-01-15T04:04:59;3.40;99.90
4356;DHT22;64374;51.482;7.408;2024-01-15T04:07:28;3.30;99.90
4356;DHT22;64374;51.482;7.408;2024-01-15T04:09:56;3.40;99.90
4356;DHT22;64374;51.482;7.408;2024-01-15T04:12:24;3.50;99.90
4356;DHT22;64374;51.482;7.408;2024-01-15T04:14:52;3.30;99.90
4356;DHT22;64374;51.482;7.408;2024-01-15T04:17:22;3.20;99.90
4356;DHT22;64374;51.482;7.408;2024-01-15T04:19:54;3.30;99.90
4356;DHT22;64374;51.482;7.408;2024-01-15T04:22:25;3.20;99.90
4356;DHT22;64374;51.482;7.408;2024-01-15T04:24:55;3.20;99.90
4356;DHT22;64374;51.482;7.408;2024-01-15T04:27:24;3.00;99.90
4356;DHT22;64374;51.482;7.408;2024-01-15T04:29:52;2.90;99.90
4356;DHT22;64374;51.482;7.408;2024-01-15T04:32:21;3.20;99.90
4356;DHT22;64374;51.482;7.408;2024-01-15T04:34:49;3.20;99.90
4356;DHT22;64374;51.482;7.408;2024-01-15T04:37:18;3.00;99.90
4356;DHT22;64374;51.482;7.408;2024-01-15T04:39:49;3.00;99.90
4356;DHT22;64374;51.482;7.408;2024-01-15T04:42:24;2.90;99.90
4356;DHT22;64374;51.482;7.408;2024-01-15T04:44:52;2.70;99.90
4356;DHT22;64374;51.482;7.408;2024-01-15T04:47:20;3.10;99.90
4356;DHT22;64374;51.482;7.408;2024-01-15T04:49:49;3.00;99.90
4356;DHT22;64374;51.482;7.408;2024-01-15T04:52:19;3.00;99.90
4356;DHT22;64374;51.482;7.408;2024-01-15T04:54:54;3.00;99.90
4356;DHT22;64374;51.482;7.408;2024-01-15T04:57:23;3.10;99.90
4356;DHT22;64374;51.482;7.408;2024-01-15T04:59:51;3.00;99.90
4356;DHT22;64374;51.482;7.408;2024-01-15T05:02:20;3.00;99.90
4356;DHT22;64374;51.482;7.408;2024-01-15T05:04:51;3.00;99.90
4356;DHT22;64374;51.482;7.408;2024-01-15T05:07:20;3.10;99.90
4356;DHT22;64374;51.482;7.408;2024-01-15T05:09:48;3.10;99.90
4356;DHT22;64374;51.482;7.408;2024-01-15T05:12:17;3.00;99.90
4356;DHT22;64374;51.482;7.408;2024-01-15T05:14:45;3.20;99.90
4356;DHT22;64374;51.482;7.408;2024-01-15T05:17:13;2.90;99.90
4356;DHT22;64374;51.482;7.408;2024-01-15T05:19:42;2.90;99.90
4356;DHT22;64374;51.482;7.408;2024-01-15T05:22:12;3.00;99.90
4356;DHT22;64374;51.482;7.408;2024-01-15T05:24:44;3.20;99.90
4356;DHT22;64374;51.482;7.408;2024-01-15T05:27:14;3.30;99.90
4356;DHT22;64374;51.482;7.408;2024-01-15T05:29:43;3.20;99.90
4356;DHT22;64374;51.482;7.408;2024-01-15T05:32:13;3.20;99.90
4356;DHT22;64374;51.482;7.408;2024-01-15T05:34:42;3.10;99.90
4356;DHT22;64374;51.482;7.408;2024-01-15T05:37:10;3.40;99.90
4356;DHT22;64374;51.482;7.408;2024-01-15T05:39:39;3.30;99.90
4356;DHT22;64374;51.482;7.408;2024-01-15T05:42:08;3.10;99.90
4356;DHT22;64374;51.482;7.408;2024-01-15T05:44:36;3.00;99.90
4356;DHT22;64374;51.482;7.408;2024-01-15T05:47:05;3.00;99.90
4356;DHT22;64374;51.482;7.408;2024-01-15T05:49:35;2.90;99.90
4356;DHT22;64374;51.482;7.408;2024-01-15T05:52:06;3.00;99.90
4356;DHT22;64374;51.482;7.408;2024-01-15T05:54:34;2.80;99.90
4356;DHT22;64374;51.482;7.408;2024-01-15T05:57:03;2.80;99.90
4356;DHT22;64374;51.482;7.408;2024-01-15T05:59:32;3.30;99.90
4356;DHT22;64374;51.482;7.408;2024-01-15T06:02:03;3.40;99.90
4356;DHT22;64374;51.482;7.408;2024-01-15T06:04:31;3.10;99.90
4356;DHT22;64374;51.482;7.408;2024-01-15T06:06:59;3.10;99.90
4356;DHT22;64374;51.482;7.408;2024-01-15T06:09:28;3.10;99.90
4356;DHT22;64374;51.482;7.408;2024-01-15T06:11:59;3.00;99.90
4356;DHT22;64374;51.482;7.408;2024-01-15T06:14:29;2.80;99.90
4356;DHT22;64374;51.482;7.408;2024-01-15T06:16:58;3.10;99.90
4356;DHT22;64374;51.482;7.408;2024-01-15T06:19:32;3.30;99.90
4356;DHT22;64374;51.482;7.408;2024-01-15T06:22:02;3.20;99.90
4356;DHT22;64374;51.482;7.408;2024-01-15T06:24:31;3.20;99.90
4356;DHT22;64374;51.482;7.408;2024-01-15T06:26:59;3.40;99.90
4356;DHT22;64374;51.482;7.408;2024-01-15T06:29:30;3.00;99.90
4356;DHT22;64374;51.482;7.408;2024-01-15T06:32:01;3.30;99.90
4356;DHT22;64374;51.482;7.408;2024-01-15T06:34:29;3.40;99.90
4356;DHT22;64374;51.482;7.408;2024-01-15T06:36:57;3.20;99.90
4356;DHT22;64374;51.482;7.408;2024-01-15T06:39:25;2.80;99.90
4356;DHT22;64374;51.482;7.408;2024-01-15T06:41:53;3.00;99.90
4356;DHT22;64374;51.482;7.408;2024-01-15T06:44:21;2.70;99.90
4356;DHT22;64374;51.482;7.408;2024-01-15T06:46:50;3.10;99.90
4356;DHT22;64374;51.482;7.408;2024-01-15T06:49:20;3.20;99.90
4356;DHT22;64374;51.482;7.408;2024-01-15T06:51:51;3.10;99.90
4356;DHT22;64374;51.482;7.408;2024-01-15T06:54:19;3.10;99.90
4356;DHT22;64374;51.482;7.408;2024-01-15T06:56:47;3.10;99.90
4356;DHT22;64374;51.482;7.408;2024-01-15T06:59:15;2.80;99.90
4356;DHT22;64374;51.482;7.408;2024-01-15T07:01:46;3.00;99.90
4356;DHT22;64374;51.482;7.408;2024-01-15T07:04:14;3.10;99.90
4356;DHT22;64374;51.482;7.408;2024-01-15T07:06:44;3.30;99.90
4356;DHT22;64374;51.482;7.408;2024-01-15T07:09:12;3.20;99.90
4356;DHT22;64374;51.482;7.408;2024-01-15T07:11:44;3.10;99.90
4356;DHT22;64374;51.482;7.408;2024-01-15T07:14:13;3.30;99.90
4356;DHT22;64374;51.482;7.408;2024-01-15T07:16:41;3.10;99.90
4356;DHT22;64374;51.482;7.408;2024-01-15T07:19:14;3.00;99.90
4356;DHT22;64374;51.482;7.408;2024-01-15T07:21:45;3.60;99.90
4356;DHT22;64374;51.482;7.408;2024-01-15T07:24:13;3.70;99.90
4356;DHT22;64374;51.482;7.408;2024-01-15T07:26:42;3.20;99.90
4356;DHT22;64374;51.482;7.408;2024-01-15T07:29:10;3.30;99.90
4356;DHT22;64374;51.482;7.408;2024-01-15T07:31:38;3.20;99.90
4356;DHT22;64374;51.482;7.408;2024-01-15T07:34:06;3.30;99.90
4356;DHT22;64374;51.482;7.408;2024-01-15T07:36:36;3.30;99.90
4356;DHT22;64374;51.482;7.408;2024-01-15T07:39:07;3.50;99.90
4356;DHT22;64374;51.482;7.408;2024-01-15T07:41:35;3.50;99.90
4356;DHT22;64374;51.482;7.408;2024-01-15T07:44:04;3.10;99.90
4356;DHT22;64374;51.482;7.408;2024-01-15T07:46:33;3.10;99.90
4356;DHT22;64374;51.482;7.408;2024-01-15T07:49:01;3.20;99.90
4356;DHT22;64374;51.482;7.408;2024-01-15T07:51:30;3.10;99.90
4356;DHT22;64374;51.482;7.408;2024-01-15T07:53:59;3.20;99.90
4356;DHT22;64374;51.482;7.408;2024-01-15T07:56:28;3.40;99.90
4356;DHT22;64374;51.482;7.408;2024-01-15T07:58:56;3.50;99.90
4356;DHT22;64374;51.482;7.408;2024-01-15T08:01:24;3.50;99.90
4356;DHT22;64374;51.482;7.408;2024-01-15T08:03:53;3.80;99.90
4356;DHT22;64374;51.482;7.408;2024-01-15T08:06:22;3.40;99.90
4356;DHT22;64374;51.482;7.408;2024-01-15T08:08:50;3.20;99.90
4356;DHT22;64374;51.482;7.408;2024-01-15T08:11:18;3.00;99.90
4356;DHT22;64374;51.482;7.408;2024-01-15T08:13:49;3.30;99.90
4356;DHT22;64374;51.482;7.408;2024-01-15T08:16:17;3.20;99.90
4356;DHT22;64374;51.482;7.408;2024-01-15T08:18:46;2.90;99.90
4356;DHT22;64374;51.482;7.408;2024-01-15T08:21:15;3.20;99.90
4356;DHT22;64374;51.482;7.408;2024-01-15T08:23:43;3.50;99.90
4356;DHT22;64374;51.482;7.408;2024-01-15T08:26:12;3.40;99.90
4356;DHT22;64374;51.482;7.408;2024-01-15T08:28:43;3.30;99.90
4356;DHT22;64374;51.482;7.408;2024-01-15T08:31:12;3.60;99.90
4356;DHT22;64374;51.482;7.408;2024-01-15T08:33:40;3.80;99.90
4356;DHT22;64374;51.482;7.408;2024-01-15T08:36:08;3.60;99.90
4356;DHT22;64374;51.482;7.408;2024-01-15T08:38:36;3.60;99.90
4356;DHT22;64374;51.482;7.408;2024-01-15T08:41:07;3.80;99.90
4356;DHT22;64374;51.482;7.408;2024-01-15T08:43:35;3.70;99.90
4356;DHT22;64374;51.482;7.408;2024-01-15T08:46:05;3.40;99.90
4356;DHT22;64374;51.482;7.408;2024-01-15T08:48:39;3.40;99.90
4356;DHT22;64374;51.482;7.408;2024-01-15T08:51:07;3.20;99.90
4356;DHT22;64374;51.482;7.408;2024-01-15T08:53:35;3.60;99.90
4356;DHT22;64374;51.482;7.408;2024-01-15T08:56:03;3.30;99.90
4356;DHT22;64374;51.482;7.408;2024-01-15T08:58:32;3.10;99.90
4356;DHT22;64374;51.482;7.408;2024-01-15T09:01:00;3.00;99.90
4356;DHT22;64374;51.482;7.408;2024-01-15T09:03:31;3.10;99.90
4356;DHT22;64374;51.482;7.408;2024-01-15T09:06:02;2.80;99.90
4356;DHT22;64374;51.482;7.408;2024-01-15T09:08:32;3.00;99.90
4356;DHT22;64374;51.482;7.408;2024-01-15T09:11:02;3.00;99.90
4356;DHT22;64374;51.482;7.408;2024-01-15T09:13:32;2.80;99.90
4356;DHT22;64374;51.482;7.408;2024-01-15T09:16:10;2.90;99.90
4356;DHT22;64374;51.482;7.408;2024-01-15T09:18:38;3.00;99.90
4356;DHT22;64374;51.482;7.408;2024-01-15T09:21:08;3.10;99.90
4356;DHT22;64374;51.482;7.408;2024-01-15T09:23:36;2.90;99.90
4356;DHT22;64374;51.482;7.408;2024-01-15T09:26:04;3.20;99.90
4356;DHT22;64374;51.482;7.408;2024-01-15T09:28:32;3.30;99.90
4356;DHT22;64374;51.482;7.408;2024-01-15T09:31:00;3.10;99.90
4356;DHT22;64374;51.482;7.408;2024-01-15T09:33:28;3.30;99.90
4356;DHT22;64374;51.482;7.408;2024-01-15T09:36:01;3.10;99.90
4356;DHT22;64374;51.482;7.408;2024-01-15T09:38:31;3.10;99.90
4356;DHT22;64374;51.482;7.408;2024-01-15T09:40:59;3.10;99.90
4356;DHT22;64374;51.482;7.408;2024-01-15T09:43:28;3.30;99.90
4356;DHT22;64374;51.482;7.408;2024-01-15T09:45:55;3.20;99.90
4356;DHT22;64374;51.482;7.408;2024-01-15T09:48:24;2.80;99.90
4356;DHT22;64374;51.482;7.408;2024-01-15T09:50:52;2.60;99.90
4356;DHT22;64374;51.482;7.408;2024-01-15T09:53:20;2.70;99.90
4356;DHT22;64374;51.482;7.408;2024-01-15T09:55:50;2.60;99.90
4356;DHT22;64374;51.482;7.408;2024-01-15T09:58:20;2.60;99.90
4356;DHT22;64374;51.482;7.408;2024-01-15T10:00:48;2.70;99.90
4356;DHT22;64374;51.482;7.408;2024-01-15T10:03:20;2.50;99.90
4356;DHT22;64374;51.482;7.408;2024-01-15T10:05:49;2.70;99.90
4356;DHT22;64374;51.482;7.408;2024-01-15T10:08:18;2.80;99.90
4356;DHT22;64374;51.482;7.408;2024-01-15T10:10:50;2.90;99.90
4356;DHT22;64374;51.482;7.408;2024-01-15T10:13:19;3.00;99.90
4356;DHT22;64374;51.482;7.408;2024-01-15T10:15:48;2.80;99.90
4356;DHT22;64374;51.482;7.408;2024-01-15T10:18:17;2.60;99.90
4356;DHT22;64374;51.482;7.408;2024-01-15T10:20:45;2.90;99.90
4356;DHT22;64374;51.482;7.408;2024-01-15T10:23:14;2.50;99.90
4356;DHT22;64374;51.482;7.408;2024-01-15T10:25:42;2.50;99.90
4356;DHT22;64374;51.482;7.408;2024-01-15T10:28:14;2.70;99.90
4356;DHT22;64374;51.482;7.408;2024-01-15T10:30:42;3.00;99.90
4356;DHT22;64374;51.482;7.408;2024-01-15T10:33:11;3.00;99.90
4356;DHT22;64374;51.482;7.408;2024-01-15T10:35:41;2.80;99.90
4356;DHT22;64374;51.482;7.408;2024-01-15T10:38:09;2.60;99.90
4356;DHT22;64374;51.482;7.408;2024-01-15T10:40:37;2.60;99.90
4356;DHT22;64374;51.482;7.408;2024-01-15T10:43:07;3.00;99.90
4356;DHT22;64374;51.482;7.408;2024-01-15T10:45:37;2.80;99.90
4356;DHT22;64374;51.482;7.408;2024-01-15T10:48:05;2.80;99.90
4356;DHT22;64374;51.482;7.408;2024-01-15T10:50:34;2.50;99.90
4356;DHT22;64374;51.482;7.408;2024-01-15T10:53:04;2.90;99.90
4356;DHT22;64374;51.482;7.408;2024-01-15T10:55:33;3.00;99.90
4356;DHT22;64374;51.482;7.408;2024-01-15T10:58:03;3.00;99.90
4356;DHT22;64374;51.482;7.408;2024-01-15T11:00:31;2.90;99.90
4356;DHT22;64374;51.482;7.408;2024-01-15T11:03:01;3.00;99.90
4356;DHT22;64374;51.482;7.408;2024-01-15T11:05:33;3.10;99.90
4356;DHT22;64374;51.482;7.408;2024-01-15T11:08:01;3.30;99.90
4356;DHT22;64374;51.482;7.408;2024-01-15T11:10:39;3.30;99.90
4356;DHT22;64374;51.482;7.408;2024-01-15T11:13:09;2.90;99.90
4356;DHT22;64374;51.482;7.408;2024-01-15T11:15:57;2.80;99.90
4356;DHT22;64374;51.482;7.408;2024-01-15T11:18:29;2.90;99.90
4356;DHT22;64374;51.482;7.408;2024-01-15T11:21:25;2.90;99.90
4356;DHT22;64374;51.482;7.408;2024-01-15T11:23:56;3.10;99.90
4356;DHT22;64374;51.482;7.408;2024-01-15T11:26:35;3.20;99.90
4356;DHT22;64374;51.482;7.408;2024-01-15T11:29:05;2.90;99.90
4356;DHT22;64374;51.482;7.408;2024-01-15T11:32:02;2.60;99.90
4356;DHT22;64374;51.482;7.408;2024-01-15T11:34:59;2.40;99.90
4356;DHT22;64374;51.482;7.408;2024-01-15T11:37:58;2.40;99.90
4356;DHT22;64374;51.482;7.408;2024-01-15T11:40:38;2.60;99.90
4356;DHT22;64374;51.482;7.408;2024-01-15T11:43:12;2.80;99.90
4356;DHT22;64374;51.482;7.408;2024-01-15T11:45:44;3.00;99.90
4356;DHT22;64374;51.482;7.408;2024-01-15T11:48:13;2.80;99.90
4356;DHT22;64374;51.482;7.408;2024-01-15T11:50:45;2.80;99.90
4356;DHT22;64374;51.482;7.408;2024-01-15T11:53:27;3.00;99.90
4356;DHT22;64374;51.482;7.408;2024-01-15T11:56:14;3.10;99.90
4356;DHT22;64374;51.482;7.408;2024-01-15T11:58:42;2.90;99.90
4356;DHT22;64374;51.482;7.408;2024-01-15T12:01:11;3.20;99.90
4356;DHT22;64374;51.482;7.408;2024-01-15T12:03:40;3.10;99.90
4356;DHT22;64374;51.482;7.408;2024-01-15T12:06:10;3.30;99.90
4356;DHT22;64374;51.482;7.408;2024-01-15T12:08:39;3.20;99.90
4356;DHT22;64374;51.482;7.408;2024-01-15T12:11:19;3.30;99.90
4356;DHT22;64374;51.482;7.408;2024-01-15T12:13:48;3.20;99.90
4356;DHT22;64374;51.482;7.408;2024-01-15T12:16:19;3.00;99.90
4356;DHT22;64374;51.482;7.408;2024-01-15T12:18:47;2.90;99.90
4356;DHT22;64374;51.482;7.408;2024-01-15T12:21:17;3.10;99.90
4356;DHT22;64374;51.482;7.408;2024-01-15T12:23:49;3.40;99.90
4356;DHT22;64374;51.482;7.408;2024-01-15T12:26:22;3.00;99.90
4356;DHT22;64374;51.482;7.408;2024-01-15T12:28:50;3.20;99.90
4356;DHT22;64374;51.482;7.408;2024-01-15T12:31:23;3.30;99.90
4356;DHT22;64374;51.482;7.408;2024-01-15T12:33:53;3.30;99.90
4356;DHT22;64374;51.482;7.408;2024-01-15T12:36:22;3.70;99.90
4356;DHT22;64374;51.482;7.408;2024-01-15T12:38:50;3.60;99.90
4356;DHT22;64374;51.482;7.408;2024-01-15T12:41:33;3.20;99.90
4356;DHT22;64374;51.482;7.408;2024-01-15T12:44:03;3.20;99.90
4356;DHT22;64374;51.482;7.408;2024-01-15T12:46:32;3.20;99.90
4356;DHT22;64374;51.482;7.408;2024-01-15T12:49:00;3.20;99.90
4356;DHT22;64374;51.482;7.408;2024-01-15T12:51:37;2.90;99.90
4356;DHT22;64374;51.482;7.408;2024-01-15T12:54:05;2.90;99.90
4356;DHT22;64374;51.482;7.408;2024-01-15T12:56:33;2.80;99.90
4356;DHT22;64374;51.482;7.408;2024-01-15T12:59:01;2.80;99.90
4356;DHT22;64374;51.482;7.408;2024-01-15T13:01:29;3.00;99.90
4356;DHT22;64374;51.482;7.408;2024-01-15T13:03:57;3.10;99.90
4356;DHT22;64374;51.482;7.408;2024-01-15T13:06:27;3.10;99.90
4356;DHT22;64374;51.482;7.408;2024-01-15T13:08:57;3.30;99.90
4356;DHT22;64374;51.482;7.408;2024-01-15T13:11:25;3.00;99.90
4356;DHT22;64374;51.482;7.408;2024-01-15T13:13:53;3.00;99.90
4356;DHT22;64374;51.482;7.408;2024-01-15T13:16:21;3.00;99.90
4356;DHT22;64374;51.482;7.408;2024-01-15T13:18:52;3.00;99.90
4356;DHT22;64374;51.482;7.408;2024-01-15T13:21:22;3.10;99.90
4356;DHT22;64374;51.482;7.408;2024-01-15T13:23:50;3.50;99.90
4356;DHT22;64374;51.482;7.408;2024-01-15T13:26:22;3.60;99.90
4356;DHT22;64374;51.482;7.408;2024-01-15T13:28:50;3.30;99.90
4356;DHT22;64374;51.482;7.408;2024-01-15T13:31:18;3.20;99.90
4356;DHT22;64374;51.482;7.408;2024-01-15T13:33:47;3.50;99.90
4356;DHT22;64374;51.482;7.408;2024-01-15T13:36:18;3.80;99.90
4356;DHT22;64374;51.482;7.408;2024-01-15T13:38:48;3.70;99.90
4356;DHT22;64374;51.482;7.408;2024-01-15T13:41:20;3.50;99.90
4356;DHT22;64374;51.482;7.408;2024-01-15T13:43:48;3.60;99.90
4356;DHT22;64374;51.482;7.408;2024-01-15T13:46:17;3.40;99.90
4356;DHT22;64374;51.482;7.408;2024-01-15T13:48:48;3.30;99.90
4356;DHT22;64374;51.482;7.408;2024-01-15T13:51:16;3.30;99.90
4356;DHT22;64374;51.482;7.408;2024-01-15T13:53:45;3.20;99.90
4356;DHT22;64374;51.482;7.408;2024-01-15T13:56:13;3.40;99.90
4356;DHT22;64374;51.482;7.408;2024-01-15T13:58:43;3.50;99.90
4356;DHT22;64374;51.482;7.408;2024-01-15T14:01:11;3.60;99.90
4356;DHT22;64374;51.482;7.408;2024-01-15T14:03:39;3.80;99.90
4356;DHT22;64374;51.482;7.408;2024-01-15T14:06:07;3.50;99.90
4356;DHT22;64374;51.482;7.408;2024-01-15T14:08:37;3.10;99.90
4356;DHT22;64374;51.482;7.408;2024-01-15T14:11:05;3.40;99.90
4356;DHT22;64374;51.482;7.408;2024-01-15T14:13:33;3.40;99.90
4356;DHT22;64374;51.482;7.408;2024-01-15T14:16:05;3.50;99.90
4356;DHT22;64374;51.482;7.408;2024-01-15T14:18:36;3.40;99.90
4356;DHT22;64374;51.482;7.408;2024-01-15T14:21:07;3.40;99.90
4356;DHT22;64374;51.482;7.408;2024-01-15T14:23:35;3.30;99.90
4356;DHT22;64374;51.482;7.408;2024-01-15T14:26:03;3.10;99.90
4356;DHT22;64374;51.482;7.408;2024-01-15T14:28:31;3.20;99.90
4356;DHT22;64374;51.482;7.408;2024-01-15T14:30:59;3.10;99.90
4356;DHT22;64374;51.482;7.408;2024-01-15T14:33:31;3.10;99.90
4356;DHT22;64374;51.482;7.408;2024-01-15T14:36:03;3.10;99.90
4356;DHT22;64374;51.482;7.408;2024-01-15T14:38:31;3.40;99.90
4356;DHT22;64374;51.482;7.408;2024-01-15T14:40:59;3.40;99.90
4356;DHT22;64374;51.482;7.408;2024-01-15T14:43:29;3.40;99.90
4356;DHT22;64374;51.482;7.408;2024-01-15T14:45:57;3.30;99.90
4356;DHT22;64374;51.482;7.408;2024-01-15T14:48:28;3.30;99.90
4356;DHT22;64374;51.482;7.408;2024-01-15T14:51:00;3.50;99.90
4356;DHT22;64374;51.482;7.408;2024-01-15T14:53:29;3.70;99.90
4356;DHT22;64374;51.482;7.408;2024-01-15T14:55:57;3.50;99.90
4356;DHT22;64374;51.482;7.408;2024-01-15T14:58:25;3.20;99.90
4356;DHT22;64374;51.482;7.408;2024-01-15T15:00:53;3.30;99.90
4356;DHT22;64374;51.482;7.408;2024-01-15T15:03:22;3.20;99.90
4356;DHT22;64374;51.482;7.408;2024-01-15T15:05:51;3.20;99.90
4356;DHT22;64374;51.482;7.408;2024-01-15T15:08:20;3.20;99.90
4356;DHT22;64374;51.482;7.408;2024-01-15T15:10:48;3.20;99.90
4356;DHT22;64374;51.482;7.408;2024-01-15T15:13:16;3.10;99.90
4356;DHT22;64374;51.482;7.408;2024-01-15T15:15:59;3.10;99.90
4356;DHT22;64374;51.482;7.408;2024-01-15T15:18:27;3.20;99.90
4356;DHT22;64374;51.482;7.408;2024-01-15T15:20:57;3.10;99.90
4356;DHT22;64374;51.482;7.408;2024-01-15T15:23:26;3.10;99.90
4356;DHT22;64374;51.482;7.408;2024-01-15T15:25:55;3.00;99.90
4356;DHT22;64374;51.482;7.408;2024-01-15T15:28:24;3.00;99.90
4356;DHT22;64374;51.482;7.408;2024-01-15T15:30:54;3.20;99.90
4356;DHT22;64374;51.482;7.408;2024-01-15T15:33:24;3.10;99.90
4356;DHT22;64374;51.482;7.408;2024-01-15T15:35:52;3.30;99.90
4356;DHT22;64374;51.482;7.408;2024-01-15T15:38:20;3.20;99.90
4356;DHT22;64374;51.482;7.408;2024-01-15T15:40:53;3.20;99.90
4356;DHT22;64374;51.482;7.408;2024-01-15T15:43:30;3.30;99.90
4356;DHT22;64374;51.482;7.408;2024-01-15T15:46:01;3.40;99.90
4356;DHT22;64374;51.482;7.408;2024-01-15T15:48:31;3.50;99.90
4356;DHT22;64374;51.482;7.408;2024-01-15T15:51:04;3.70;99.90
4356;DHT22;64374;51.482;7.408;2024-01-15T15:53:35;3.90;99.90
4356;DHT22;64374;51.482;7.408;2024-01-15T15:56:08;4.00;99.90
4356;DHT22;64374;51.482;7.408;2024-01-15T15:58:37;3.90;99.90
4356;DHT22;64374;51.482;7.408;2024-01-15T16:01:05;3.70;99.90
4356;DHT22;64374;51.482;7.408;2024-01-15T16:03:34;3.50;99.90
4356;DHT22;64374;51.482;7.408;2024-01-15T16:06:02;3.80;99.90
4356;DHT22;64374;51.482;7.408;2024-01-15T16:08:37;3.70;99.90
4356;DHT22;64374;51.482;7.408;2024-01-15T16:11:09;3.50;99.90
4356;DHT22;64374;51.482;7.408;2024-01-15T16:13:37;3.40;99.90
4356;DHT22;64374;51.482;7.408;2024-01-15T16:16:09;3.30;99.90
4356;DHT22;64374;51.482;7.408;2024-01-15T16:18:59;3.50;99.90